Time;durP1;ratioP1;P1;durP2;ratioP2;P2;SDS_P1;SDS_P2;PMS_P1;PMS_P2;Temp;Humidity;BMP_temperature;BMP_pressure;BME280_temperature;BME280_humidity;BME280_pressure;Samples;Min_cycle;Max_cycle;Signal;HPM_P1;HPM_P2
2022/04/07 00:00:53;;;;;;;293.45;267.90;;;;;;;18.08;33.95;92423.31;5026755;28;20079;-69
2022/04/07 00:03:18;;;;;;;306.23;279.83;;;;;;;18.10;33.81;92427.00;5021857;28;21107;-68
2022/04/07 00:05:44;;;;;;;294.40;268.88;;;;;;;18.09;33.98;92422.09;5021840;28;20050;-68
2022/04/07 00:08:10;;;;;;;310.33;283.05;;;;;;;18.12;33.92;92428.47;5022363;28;20187;-68
2022/04/07 00:10:37;;;;;;;301.45;275.08;;;;;;;18.12;33.94;92423.81;5022695;28;20132;-68
2022/04/07 00:13:03;;;;;;;298.50;272.35;;;;;;;18.10;33.94;92410.78;5019873;28;20187;-68
2022/04/07 00:15:29;;;;;;;288.58;263.20;;;;;;;18.19;33.72;92403.63;5020799;28;20053;-68
2022/04/07 00:17:56;;;;;;;292.55;267.08;;;;;;;18.17;33.93;92403.38;5025028;28;20034;-68
2022/04/07 00:20:22;;;;;;;295.17;269.20;;;;;;;18.16;33.95;92399.94;5020125;28;20055;-68
2022/04/07 00:22:48;;;;;;;284.92;259.58;;;;;;;18.17;33.93;92406.09;5018656;28;20045;-68
2022/04/07 00:25:14;;;;;;;300.63;274.73;;;;;;;18.15;33.51;92403.88;5020139;28;20056;-68
2022/04/07 00:27:40;;;;;;;309.92;282.38;;;;;;;18.13;33.96;92400.94;5024764;28;20033;-69
2022/04/07 00:30:06;;;;;;;302.95;276.77;;;;;;;18.13;33.87;92403.63;5019677;28;20046;-68
2022/04/07 00:32:39;;;;;;;298.33;272.38;;;;;;;18.12;34.07;92398.72;5024211;28;20092;-68
2022/04/07 00:35:05;;;;;;;317.77;289.40;;;;;;;18.14;33.84;92396.25;5022981;28;20049;-68
2022/04/07 00:37:30;;;;;;;314.70;287.80;;;;;;;18.12;34.10;92394.03;5016850;28;20040;-68
2022/04/07 00:39:56;;;;;;;304.70;278.45;;;;;;;18.14;33.99;92398.97;5020518;28;20434;-68
2022/04/07 00:42:21;;;;;;;295.42;269.65;;;;;;;18.13;33.97;92390.09;5021385;28;20044;-68
2022/04/07 00:44:47;;;;;;;299.92;274.15;;;;;;;18.11;33.88;92381.75;5024230;28;20037;-68
2022/04/07 00:47:12;;;;;;;296.75;270.90;;;;;;;18.13;34.05;92379.28;5021444;28;20517;-68
2022/04/07 00:49:38;;;;;;;299.55;273.17;;;;;;;18.13;33.94;92373.13;5020013;28;20057;-68
2022/04/07 00:52:06;;;;;;;287.98;262.23;;;;;;;18.08;33.87;92374.63;5020025;28;20045;-68
2022/04/07 00:54:32;;;;;;;283.20;258.23;;;;;;;18.08;33.93;92359.13;5021134;28;20680;-68
2022/04/07 00:57:00;;;;;;;302.25;275.92;;;;;;;18.09;33.92;92371.41;5023130;28;20056;-68
2022/04/07 00:59:27;;;;;;;307.10;280.10;;;;;;;18.10;33.89;92372.91;5022461;28;20053;-68
2022/04/07 01:01:52;;;;;;;318.98;290.50;;;;;;;18.11;34.00;92384.44;5020733;28;20463;-68
2022/04/07 01:04:18;;;;;;;292.90;267.13;;;;;;;18.12;33.81;92382.47;5022612;28;20054;-68
2022/04/07 01:06:47;;;;;;;299.58;273.20;;;;;;;18.12;34.00;92379.78;5023988;28;20079;-68
2022/04/07 01:09:15;;;;;;;296.90;271.05;;;;;;;18.09;34.02;92376.09;5022048;28;20398;-69
2022/04/07 01:11:42;;;;;;;302.10;275.67;;;;;;;18.08;33.93;92369.22;5022735;28;20056;-68
2022/04/07 01:14:08;;;;;;;304.80;277.95;;;;;;;18.08;33.96;92369.22;5014411;28;20041;-68
2022/04/07 01:16:34;;;;;;;297.77;272.10;;;;;;;18.08;33.82;92374.63;5023976;28;20048;-68
2022/04/07 01:19:00;;;;;;;300.30;273.65;;;;;;;18.07;33.88;92373.16;5022760;28;20034;-68
2022/04/07 01:21:27;;;;;;;298.38;272.42;;;;;;;18.07;33.90;92373.16;5019825;28;20049;-68
2022/04/07 01:24:06;;;;;;;305.30;278.98;;;;;;;18.07;33.97;92365.03;5018957;28;20049;-68
2022/04/07 01:26:43;;;;;;;293.52;268.02;;;;;;;18.06;33.99;92358.13;5022317;28;20038;-69
2022/04/07 01:29:14;;;;;;;292.10;266.23;;;;;;;18.07;33.93;92365.03;5024362;28;20049;-69
2022/04/07 01:31:40;;;;;;;;;;;;;;;18.05;33.94;92362.06;5018497;28;20037;-68
2022/04/07 01:34:09;;;;;;;302.77;275.60;;;;;;;18.06;33.69;92374.38;5022607;28;19931;-68
2022/04/07 01:36:40;;;;;;;290.08;264.48;;;;;;;18.04;34.03;92364.03;5022329;28;20041;-68
2022/04/07 01:39:07;;;;;;;298.38;272.20;;;;;;;18.05;33.93;92367.50;5019513;28;20045;-68
2022/04/07 01:41:35;;;;;;;295.15;269.70;;;;;;;18.03;33.85;92362.56;5027625;28;20072;-69
2022/04/07 01:44:03;;;;;;;303.00;276.98;;;;;;;18.04;33.95;92357.91;5023999;28;20045;-68
2022/04/07 01:46:31;;;;;;;292.08;266.15;;;;;;;18.04;33.69;92353.22;5017879;28;20069;-68
2022/04/07 01:48:59;;;;;;;303.48;276.55;;;;;;;18.04;33.68;92355.94;5013633;28;20061;-68
2022/04/07 01:51:26;;;;;;;292.98;266.83;;;;;;;18.05;33.96;92357.41;5014056;28;20128;-68
2022/04/07 01:53:52;;;;;;;304.27;278.05;;;;;;;18.04;33.90;92350.53;5018869;28;20076;-69
2022/04/07 01:56:20;;;;;;;300.27;274.15;;;;;;;18.05;33.84;92345.84;5023479;28;20049;-69
2022/04/07 01:58:47;;;;;;;299.20;272.75;;;;;;;18.04;33.67;92347.81;5020283;28;20045;-68
2022/04/07 02:01:14;;;;;;;293.98;268.05;;;;;;;18.04;34.00;92353.22;5021739;28;20171;-68
2022/04/07 02:03:40;;;;;;;294.20;268.45;;;;;;;18.04;33.93;92344.38;5023878;28;20060;-68
2022/04/07 02:06:11;;;;;;;298.02;271.83;;;;;;;18.05;33.84;92345.84;5015039;28;20094;-68
2022/04/07 02:08:38;;;;;;;295.63;269.58;;;;;;;18.04;33.89;92345.09;5015501;28;20385;-69
2022/04/07 02:11:03;;;;;;;290.40;264.88;;;;;;;18.04;33.89;92339.69;5020474;28;20045;-68
2022/04/07 02:13:31;;;;;;;300.48;273.73;;;;;;;18.04;33.81;92334.28;5020030;28;20042;-68
2022/04/07 02:15:57;;;;;;;302.65;276.42;;;;;;;18.06;33.77;92329.13;5022137;28;20395;-68
2022/04/07 02:18:23;;;;;;;320.70;293.45;;;;;;;18.07;33.70;92335.28;5024627;28;20072;-68
2022/04/07 02:20:48;;;;;;;296.05;270.52;;;;;;;18.08;33.85;92336.75;5020116;28;20041;-68
2022/04/07 02:23:14;;;;;;;297.85;271.33;;;;;;;18.06;33.76;92336.50;5019196;28;20068;-68
2022/04/07 02:25:42;;;;;;;298.02;272.10;;;;;;;18.05;33.84;92333.06;5021217;28;20113;-68
2022/04/07 02:28:07;;;;;;;300.83;274.58;;;;;;;18.05;33.69;92333.06;5022464;28;20087;-68
2022/04/07 02:30:36;;;;;;;281.75;256.55;;;;;;;18.06;33.77;92331.09;5022009;28;20120;-69
2022/04/07 02:33:12;;;;;;;285.15;260.08;;;;;;;18.05;33.90;92327.66;5022319;28;20048;-68
2022/04/07 02:35:38;;;;;;;296.08;270.08;;;;;;;18.05;33.63;92324.22;5022494;28;20065;-69
2022/04/07 02:38:03;;;;;;;304.75;277.90;;;;;;;18.04;33.94;92328.16;5023349;28;20053;-68
2022/04/07 02:40:29;;;;;;;299.52;273.70;;;;;;;18.06;33.74;92321.00;5016909;28;20049;-68
2022/04/07 02:42:54;;;;;;;302.10;275.88;;;;;;;18.06;33.73;92320.28;5022958;28;24358;-68
2022/04/07 02:45:20;;;;;;;306.85;279.65;;;;;;;18.07;33.69;92327.91;5024088;28;20033;-68
2022/04/07 02:47:45;;;;;;;294.65;268.73;;;;;;;18.05;33.63;92327.66;5027134;28;20137;-68
2022/04/07 02:50:11;;;;;;;291.35;265.70;;;;;;;18.05;33.75;92332.31;5027014;28;20045;-68
2022/04/07 02:52:37;;;;;;;290.98;265.38;;;;;;;18.04;33.69;92331.59;5026837;28;20053;-68
2022/04/07 02:55:04;;;;;;;317.65;289.30;;;;;;;18.03;33.76;92338.22;5023310;28;20064;-68
2022/04/07 02:57:31;;;;;;;301.80;274.95;;;;;;;18.02;33.85;92344.88;5019185;28;20044;-68
2022/04/07 03:00:00;;;;;;;304.85;277.50;;;;;;;18.01;33.84;92343.38;5021293;28;20103;-68
2022/04/07 03:02:27;;;;;;;293.40;267.10;;;;;;;18.01;33.84;92346.09;5020624;28;20037;-68
2022/04/07 03:04:53;;;;;;;297.77;271.00;;;;;;;18.01;33.79;92339.94;5018889;28;20061;-68
2022/04/07 03:07:19;;;;;;;318.45;290.23;;;;;;;18.01;33.88;92337.25;5027897;28;20057;-69
2022/04/07 03:09:45;;;;;;;299.25;272.63;;;;;;;18.00;33.95;92336.50;5018959;28;20409;-68
2022/04/07 03:12:13;;;;;;;307.77;280.25;;;;;;;18.00;33.86;92333.81;5023133;28;20041;-68
2022/04/07 03:14:40;;;;;;;352.77;322.67;;;;;;;18.01;33.85;92345.34;5023962;28;20037;-68
2022/04/07 03:17:06;;;;;;;287.92;262.40;;;;;;;18.01;33.81;92340.69;5027914;28;20045;-68
2022/04/07 03:19:32;;;;;;;289.52;264.10;;;;;;;18.00;33.88;92335.78;5025862;28;20046;-69
2022/04/07 03:21:58;;;;;;;283.83;258.30;;;;;;;17.98;33.77;92344.38;5024626;28;20045;-68
2022/04/07 03:24:27;;;;;;;314.30;286.25;;;;;;;17.98;34.09;92344.38;5025469;28;20053;-68
2022/04/07 03:26:53;;;;;;;293.08;266.45;;;;;;;17.98;33.90;92351.75;5024445;28;20129;-68
2022/04/07 03:29:20;;;;;;;294.70;268.08;;;;;;;17.97;33.92;92348.31;5019089;28;20478;-68
2022/04/07 03:31:48;;;;;;;282.08;257.10;;;;;;;17.95;33.81;92350.78;5023122;28;20041;-68
2022/04/07 03:34:13;;;;;;;281.02;256.00;;;;;;;17.94;33.99;92357.41;5028326;28;20045;-68
2022/04/07 03:36:39;;;;;;;293.80;266.83;;;;;;;17.94;34.02;92349.28;5020689;28;20053;-68
2022/04/07 03:39:04;;;;;;;298.17;271.55;;;;;;;17.93;33.99;92355.19;5022477;28;20048;-68
2022/04/07 03:41:30;;;;;;;277.50;252.70;;;;;;;17.89;34.07;92352.75;5020051;28;20751;-70
2022/04/07 03:43:56;;;;;;;285.55;260.08;;;;;;;17.92;34.11;92356.44;5020161;28;20057;-72
2022/04/07 03:46:21;;;;;;;286.52;261.33;;;;;;;17.91;34.19;92355.69;5022522;28;20041;-69
2022/04/07 03:48:51;;;;;;;289.70;263.70;;;;;;;17.90;33.95;92353.47;5022082;28;20731;-70
2022/04/07 03:51:17;;;;;;;288.90;263.58;;;;;;;17.91;34.15;92360.38;5025791;28;20046;-78
2022/04/07 03:53:44;;;;;;;292.33;266.83;;;;;;;17.93;34.07;92355.19;5027562;28;20041;-70
2022/04/07 03:56:10;;;;;;;295.00;269.00;;;;;;;17.94;34.18;92359.38;5023785;28;20096;-70
2022/04/07 03:58:37;;;;;;;282.33;256.98;;;;;;;17.94;34.34;92356.66;5029287;28;20042;-71
2022/04/07 04:01:03;;;;;;;292.67;267.17;;;;;;;17.94;34.30;92362.09;5025937;28;20828;-69
2022/04/07 04:03:29;;;;;;;284.15;258.75;;;;;;;18.01;34.37;92358.88;5026838;28;20172;-68
2022/04/07 04:05:55;;;;;;;289.50;264.08;;;;;;;17.99;34.17;92348.56;5023927;28;20084;-71
2022/04/07 04:08:21;;;;;;;291.70;266.17;;;;;;;18.01;34.27;92359.63;5023183;28;20467;-70
2022/04/07 04:10:47;;;;;;;285.85;260.40;;;;;;;17.99;34.19;92358.63;5023672;28;20507;-70
2022/04/07 04:13:12;;;;;;;305.23;277.80;;;;;;;18.00;34.31;92352.75;5013248;28;20184;-70
2022/04/07 04:15:38;;;;;;;295.77;270.15;;;;;;;18.03;34.58;92361.84;5021854;28;20049;-70
2022/04/07 04:18:04;;;;;;;284.25;259.30;;;;;;;18.08;34.75;92361.81;5026887;28;20045;-70
2022/04/07 04:20:30;;;;;;;294.48;268.95;;;;;;;18.12;34.50;92355.44;5019978;28;20506;-69
2022/04/07 04:22:55;;;;;;;292.95;267.73;;;;;;;18.16;34.50;92353.94;5029662;28;20048;-70
2022/04/07 04:25:22;;;;;;;300.85;275.30;;;;;;;18.19;34.42;92358.38;5027400;28;20060;-70
2022/04/07 04:27:48;;;;;;;299.00;273.42;;;;;;;18.20;34.39;92359.13;5021553;28;20053;-70
2022/04/07 04:30:14;;;;;;;299.38;272.70;;;;;;;18.20;34.17;92362.53;5027646;28;20536;-68
2022/04/07 04:32:39;;;;;;;303.90;278.33;;;;;;;18.24;34.32;92359.56;5031753;28;20366;-68
2022/04/07 04:35:06;;;;;;;306.38;279.65;;;;;;;18.27;34.38;92366.69;5024566;28;20056;-68
2022/04/07 04:37:32;;;;;;;295.27;269.98;;;;;;;18.27;34.38;92364.72;5018082;28;20050;-71
2022/04/07 04:39:57;;;;;;;311.83;285.90;;;;;;;18.29;34.31;92364.25;5028537;28;20049;-68
2022/04/07 04:42:23;;;;;;;308.80;282.67;;;;;;;18.33;34.26;92362.00;5024621;28;20049;-69
2022/04/07 04:44:49;;;;;;;306.65;280.48;;;;;;;18.32;34.20;92360.53;5025532;28;20164;-68
2022/04/07 04:47:17;;;;;;;300.02;274.92;;;;;;;18.31;34.20;92359.81;5027112;28;20037;-69
2022/04/07 04:49:43;;;;;;;307.10;281.83;;;;;;;18.32;34.04;92366.69;5025331;28;20081;-69
2022/04/07 04:52:09;;;;;;;301.80;276.42;;;;;;;18.29;34.22;92367.69;5025113;28;20060;-69
2022/04/07 04:54:35;;;;;;;301.35;276.40;;;;;;;18.31;34.28;92367.19;5023569;28;20037;-69
2022/04/07 04:57:01;;;;;;;292.25;267.33;;;;;;;18.34;33.96;92366.19;5030864;28;20045;-69
2022/04/07 04:59:27;;;;;;;316.00;289.73;;;;;;;18.35;33.91;92370.38;5039221;28;20068;-69
2022/04/07 05:01:55;;;;;;;292.42;267.73;;;;;;;18.39;33.93;92349.22;5027397;28;20037;-69
2022/04/07 05:04:21;;;;;;;313.05;287.25;;;;;;;18.35;34.14;92357.59;5024969;28;20099;-69
2022/04/07 05:06:46;;;;;;;309.50;283.80;;;;;;;18.38;33.99;92359.28;5023364;28;20053;-69
2022/04/07 05:09:12;;;;;;;308.00;282.63;;;;;;;18.37;33.97;92352.41;5023733;28;20521;-69
2022/04/07 05:11:38;;;;;;;298.45;273.48;;;;;;;18.38;34.21;92342.31;5021253;28;20461;-69
2022/04/07 05:14:03;;;;;;;309.63;283.85;;;;;;;18.42;34.03;92350.91;5020325;28;20046;-69
2022/04/07 05:16:29;;;;;;;306.63;281.17;;;;;;;18.44;33.97;92341.06;5024152;28;20045;-69
2022/04/07 05:18:54;;;;;;;314.23;287.85;;;;;;;18.44;33.96;92337.63;5021059;28;20029;-68
2022/04/07 05:21:20;;;;;;;320.60;293.15;;;;;;;18.45;33.93;92339.09;5018025;28;20114;-68
2022/04/07 05:23:45;;;;;;;293.80;268.80;;;;;;;18.44;34.15;92324.09;5025782;28;20509;-69
2022/04/07 05:26:14;;;;;;;296.95;272.35;;;;;;;18.44;33.93;92338.38;5022890;28;20045;-69
2022/04/07 05:28:43;;;;;;;304.95;279.55;;;;;;;18.43;34.02;92322.63;5035388;28;20585;-69
2022/04/07 05:31:09;;;;;;;298.48;273.33;;;;;;;18.45;33.90;92322.88;5021924;28;20044;-69
2022/04/07 05:33:35;;;;;;;302.17;276.70;;;;;;;18.44;34.05;92319.41;5027347;28;20037;-69
2022/04/07 05:36:00;;;;;;;294.02;269.17;;;;;;;18.45;33.73;92312.03;5026287;28;20123;-69
2022/04/07 05:38:26;;;;;;;309.92;284.02;;;;;;;18.48;33.82;92321.88;5017409;28;20054;-69
2022/04/07 05:40:52;;;;;;;309.88;284.30;;;;;;;18.50;33.80;92316.69;5026344;28;20059;-69
2022/04/07 05:43:18;;;;;;;298.42;273.23;;;;;;;18.51;33.80;92309.31;5024290;28;20045;-69
2022/04/07 05:45:45;;;;;;;308.80;283.35;;;;;;;18.48;33.87;92316.47;5023279;28;20045;-69
2022/04/07 05:48:12;;;;;;;299.45;274.30;;;;;;;18.50;33.72;92315.97;5020416;28;20064;-69
2022/04/07 05:50:38;;;;;;;295.27;270.40;;;;;;;18.47;33.79;92317.69;5024741;28;20565;-69
2022/04/07 05:53:06;;;;;;;293.63;268.65;;;;;;;18.45;33.72;92314.75;5024699;28;20046;-69
2022/04/07 05:55:32;;;;;;;300.33;275.42;;;;;;;18.43;33.68;92315.25;5025981;28;20041;-67
2022/04/07 05:58:03;;;;;;;304.60;279.23;;;;;;;18.44;33.90;92310.56;5030739;28;20120;-69
2022/04/07 06:00:29;;;;;;;300.15;274.92;;;;;;;18.44;33.73;92303.19;5030641;28;20049;-68
2022/04/07 06:02:54;;;;;;;302.30;276.77;;;;;;;18.43;33.73;92292.84;5019078;28;20041;-68
2022/04/07 06:05:20;;;;;;;295.58;270.60;;;;;;;18.43;33.83;92301.72;5021293;28;20060;-67
2022/04/07 06:07:46;;;;;;;308.20;282.38;;;;;;;18.43;33.61;92300.97;5026806;28;20049;-68
2022/04/07 06:10:13;;;;;;;304.42;278.88;;;;;;;18.48;33.52;92294.06;5011559;28;20061;-68
2022/04/07 06:12:42;;;;;;;302.63;277.35;;;;;;;18.45;33.98;92295.78;5025590;28;20073;-69
2022/04/07 06:15:11;;;;;;;321.92;294.00;;;;;;;18.43;33.93;92295.56;5023035;28;20049;-68
2022/04/07 06:17:39;;;;;;;296.42;271.20;;;;;;;18.44;33.86;92297.78;5024710;28;20049;-69
2022/04/07 06:20:10;;;;;;;295.55;270.52;;;;;;;18.43;33.66;92290.88;5019484;28;20408;-74
2022/04/07 06:22:35;;;;;;;300.85;275.27;;;;;;;18.46;33.75;92293.81;5020127;28;20132;-72
2022/04/07 06:25:01;;;;;;;320.42;293.30;;;;;;;18.47;33.83;92290.63;5028970;28;20144;-68
2022/04/07 06:27:43;;;;;;;298.00;273.08;;;;;;;18.46;33.85;92285.72;5023865;28;20045;-68
2022/04/07 06:30:12;;;;;;;304.63;279.25;;;;;;;18.45;33.79;92287.69;5022857;28;20171;-68
2022/04/07 06:32:38;;;;;;;296.70;271.88;;;;;;;18.46;33.80;92291.13;5025642;28;20081;-68
2022/04/07 06:35:05;;;;;;;314.45;287.40;;;;;;;18.43;33.78;92288.19;5024223;28;20045;-68
2022/04/07 06:37:30;;;;;;;305.88;280.65;;;;;;;18.46;33.76;92299.25;5017677;28;20050;-68
2022/04/07 06:40:01;;;;;;;305.80;280.45;;;;;;;18.46;33.86;92286.44;5019802;28;20136;-68
2022/04/07 06:42:26;;;;;;;;;;;;;;;18.47;33.76;92287.19;5024984;28;20421;-68
2022/04/07 06:44:51;;;;;;;296.27;270.30;;;;;;;18.49;33.54;92284.72;5018539;28;19924;-68
2022/04/07 06:47:17;;;;;;;304.02;278.58;;;;;;;18.47;33.60;92290.63;5022449;28;20072;-68
2022/04/07 06:49:42;;;;;;;322.45;294.40;;;;;;;18.45;33.60;92284.97;5020166;28;20057;-69
2022/04/07 06:52:08;;;;;;;297.05;271.95;;;;;;;18.44;33.59;92278.81;5024425;28;20065;-68
2022/04/07 06:54:33;;;;;;;317.23;290.83;;;;;;;18.44;33.51;92276.13;5021961;28;20057;-68
2022/04/07 06:56:59;;;;;;;309.17;283.00;;;;;;;18.46;33.65;92250.53;5023540;28;20034;-68
2022/04/07 06:59:24;;;;;;;304.85;279.15;;;;;;;18.46;33.67;92250.53;5014459;28;22817;-68
2022/04/07 07:01:50;;;;;;;303.77;278.35;;;;;;;18.44;33.67;92251.75;5022087;28;20041;-68
2022/04/07 07:04:15;;;;;;;296.70;271.60;;;;;;;18.42;33.54;92245.38;5023226;28;20148;-68
2022/04/07 07:06:41;;;;;;;296.67;271.27;;;;;;;18.42;33.72;92243.41;5023876;28;20107;-68
2022/04/07 07:09:06;;;;;;;297.95;271.90;;;;;;;18.42;33.73;92226.41;5021427;28;20060;-68
2022/04/07 07:11:32;;;;;;;298.40;273.20;;;;;;;18.42;33.53;92223.72;5038436;28;20077;-67
2022/04/07 07:13:57;;;;;;;297.92;272.73;;;;;;;18.42;33.82;92231.84;5028353;28;20049;-66
2022/04/07 07:16:23;;;;;;;302.00;276.48;;;;;;;18.44;33.61;92229.38;5024324;28;20633;-66
2022/04/07 07:18:48;;;;;;;295.60;270.40;;;;;;;18.47;33.89;92238.47;5018634;28;20060;-65
2022/04/07 07:21:14;;;;;;;308.77;282.50;;;;;;;18.45;33.85;92228.13;5019527;28;20050;-66
2022/04/07 07:23:39;;;;;;;313.55;287.00;;;;;;;18.45;33.46;92220.00;5025918;28;20445;-65
2022/04/07 07:26:05;;;;;;;293.88;269.15;;;;;;;18.43;33.83;92211.66;5019449;28;20064;-65
2022/04/07 07:28:30;;;;;;;290.48;265.40;;;;;;;18.42;33.62;92216.34;5021468;28;20041;-65
2022/04/07 07:30:56;;;;;;;306.20;280.42;;;;;;;18.47;33.55;92205.97;5026090;28;20057;-66
2022/04/07 07:33:21;;;;;;;304.60;279.13;;;;;;;18.46;33.73;92207.94;5029306;28;20048;-66
2022/04/07 07:35:47;;;;;;;301.48;276.05;;;;;;;18.47;33.66;92214.09;5029104;28;20107;-65
2022/04/07 07:38:12;;;;;;;298.50;273.05;;;;;;;18.46;33.70;92201.81;5036335;28;20056;-65
2022/04/07 07:40:38;;;;;;;303.65;278.23;;;;;;;18.45;33.65;92211.88;5039077;28;20097;-65
2022/04/07 07:43:04;;;;;;;302.60;276.80;;;;;;;18.47;33.83;92204.00;5028437;28;20084;-65
2022/04/07 07:45:33;;;;;;;307.50;281.70;;;;;;;18.46;33.91;92210.66;5016148;28;20049;-65
2022/04/07 07:47:59;;;;;;;303.30;277.67;;;;;;;18.47;33.72;92212.13;5028236;28;20132;-65
2022/04/07 07:50:24;;;;;;;301.67;276.23;;;;;;;18.49;33.82;92211.63;5027139;28;20045;-66
2022/04/07 07:52:50;;;;;;;309.80;284.20;;;;;;;18.48;33.72;92210.88;5027753;28;20051;-66
2022/04/07 07:55:17;;;;;;;303.05;277.75;;;;;;;18.48;33.69;92216.31;5026644;28;20049;-65
2022/04/07 07:57:42;;;;;;;312.08;286.42;;;;;;;18.46;33.67;92213.38;5030748;28;20147;-65
2022/04/07 08:00:10;;;;;;;308.15;282.55;;;;;;;18.46;33.64;92207.94;5030453;28;20500;-65
2022/04/07 08:02:38;;;;;;;307.50;281.60;;;;;;;18.49;33.50;92200.81;5024329;28;20065;-66
2022/04/07 08:05:04;;;;;;;312.08;284.48;;;;;;;18.48;33.53;92189.25;5023767;28;20417;-65
2022/04/07 08:07:30;;;;;;;307.65;282.33;;;;;;;18.48;33.94;92181.13;5027636;28;20152;-65
2022/04/07 08:09:56;;;;;;;296.52;271.35;;;;;;;18.48;33.83;92175.72;5008963;28;20389;-66
2022/04/07 08:12:23;;;;;;;314.75;288.40;;;;;;;18.51;33.75;92179.38;5026988;28;20053;-66
2022/04/07 08:14:48;;;;;;;305.50;280.15;;;;;;;18.52;33.80;92189.72;5027380;28;20111;-66
2022/04/07 08:17:14;;;;;;;311.48;286.02;;;;;;;18.55;33.61;92190.69;5026185;28;20634;-66
2022/04/07 08:19:40;;;;;;;308.00;282.42;;;;;;;18.54;33.92;92187.25;5022887;28;20049;-66
2022/04/07 08:22:07;;;;;;;302.95;277.45;;;;;;;18.55;33.46;92180.59;5020877;28;20049;-65
2022/04/07 08:24:34;;;;;;;308.85;283.20;;;;;;;18.55;33.70;92182.56;5030050;28;20625;-67
2022/04/07 08:27:00;;;;;;;304.83;279.40;;;;;;;18.53;33.74;92179.63;5031948;28;20045;-67
2022/04/07 08:29:26;;;;;;;327.27;300.10;;;;;;;18.54;33.51;92181.81;5020910;28;20059;-67
2022/04/07 08:31:53;;;;;;;313.23;287.67;;;;;;;18.56;33.53;92184.75;5030141;28;20728;-67
2022/04/07 08:34:19;;;;;;;311.95;286.42;;;;;;;18.54;33.73;92175.66;5024792;28;20054;-67
2022/04/07 08:36:44;;;;;;;313.77;287.98;;;;;;;18.56;33.67;92173.94;5015012;28;20524;-67
2022/04/07 08:39:10;;;;;;;317.73;291.85;;;;;;;18.59;33.71;92177.63;5024893;28;20153;-66
2022/04/07 08:41:39;;;;;;;316.15;289.73;;;;;;;18.59;33.64;92172.94;5025437;28;20129;-66
2022/04/07 08:44:04;;;;;;;317.35;291.60;;;;;;;18.63;33.73;92180.81;5029198;28;20477;-67
2022/04/07 08:46:32;;;;;;;313.60;287.45;;;;;;;18.62;33.72;92180.09;5025545;28;20053;-66
2022/04/07 08:49:00;;;;;;;325.50;298.15;;;;;;;18.64;33.64;92174.16;5021198;28;20084;-66
2022/04/07 08:51:28;;;;;;;311.70;284.70;;;;;;;18.62;33.88;92176.63;4997582;28;20041;-67
2022/04/07 08:53:54;;;;;;;308.20;282.73;;;;;;;18.59;33.54;92166.78;5020993;28;20513;-65
2022/04/07 08:56:19;;;;;;;327.25;300.10;;;;;;;18.60;33.66;92157.44;5024770;28;20044;-65
2022/04/07 08:58:45;;;;;;;308.60;283.05;;;;;;;18.58;33.36;92152.50;5033272;28;20126;-66
2022/04/07 09:01:10;;;;;;;312.52;286.42;;;;;;;18.62;33.52;92144.16;5029803;28;20044;-66
2022/04/07 09:03:36;;;;;;;315.73;289.73;;;;;;;18.62;33.48;92149.56;5026174;28;20464;-67
2022/04/07 09:06:03;;;;;;;300.70;275.42;;;;;;;18.61;33.64;92146.13;5031318;28;20125;-67
2022/04/07 09:08:34;;;;;;;311.77;286.25;;;;;;;18.61;33.48;92145.38;5027358;28;20076;-67
2022/04/07 09:11:01;;;;;;;305.13;279.98;;;;;;;18.62;33.46;92146.84;5012956;28;20050;-67
2022/04/07 09:13:31;;;;;;;313.65;287.80;;;;;;;18.62;33.50;92125.94;5026075;28;20390;-67
2022/04/07 09:15:58;;;;;;;311.05;285.55;;;;;;;18.62;33.25;92128.63;5026284;28;20049;-67
2022/04/07 09:18:25;;;;;;;312.20;286.55;;;;;;;18.67;33.23;92135.25;5028610;28;20107;-67
2022/04/07 09:20:51;;;;;;;295.83;270.77;;;;;;;18.65;33.39;92121.50;5020939;28;20092;-67
2022/04/07 09:23:19;;;;;;;315.77;289.70;;;;;;;18.67;33.46;92108.91;5025021;28;20049;-67
2022/04/07 09:25:49;;;;;;;311.30;285.60;;;;;;;18.64;33.32;92106.47;5026302;28;20423;-67
2022/04/07 09:28:28;;;;;;;304.80;279.48;;;;;;;18.63;33.28;92092.22;5022554;28;20049;-67
2022/04/07 09:30:56;;;;;;;299.58;274.52;;;;;;;18.61;33.39;92091.97;5024355;28;20468;-67
2022/04/07 09:33:23;;;;;;;307.58;282.13;;;;;;;18.60;33.53;92076.22;5025664;28;20037;-66
2022/04/07 09:36:03;;;;;;;305.60;280.25;;;;;;;18.61;33.35;92073.03;5026218;28;20048;-67
2022/04/07 09:38:33;;;;;;;309.98;284.13;;;;;;;18.59;33.42;92072.03;5032373;28;20050;-67
2022/04/07 09:41:04;;;;;;;309.83;284.00;;;;;;;18.58;33.27;92057.03;5039364;28;20052;-67
2022/04/07 09:43:33;;;;;;;311.20;285.67;;;;;;;18.54;33.36;92051.16;5026748;28;20053;-67
2022/04/07 09:45:59;;;;;;;308.75;283.35;;;;;;;18.52;33.54;92050.91;5028867;28;20048;-67
2022/04/07 09:48:27;;;;;;;307.85;282.40;;;;;;;18.54;33.62;92048.44;5027562;28;20137;-67
2022/04/07 09:51:03;;;;;;;302.70;277.20;;;;;;;18.59;33.42;92042.25;5026882;28;20059;-67
2022/04/07 09:53:39;;;;;;;303.80;278.05;;;;;;;18.63;33.35;92042.75;5026029;28;20053;-67
2022/04/07 09:56:06;;;;;;;305.73;280.52;;;;;;;18.65;33.59;92046.41;5027825;28;20045;-66
2022/04/07 09:58:35;;;;;;;303.13;277.65;;;;;;;18.66;33.51;92042.47;5026604;28;20045;-67
2022/04/07 10:01:04;;;;;;;311.33;285.73;;;;;;;18.58;33.46;92043.50;5024631;28;20801;-66
2022/04/07 10:03:31;;;;;;;304.50;279.05;;;;;;;18.53;33.67;92026.06;5027493;28;20037;-67
2022/04/07 10:05:58;;;;;;;310.83;284.83;;;;;;;18.51;33.55;92019.69;5023985;28;20589;-67
2022/04/07 10:08:25;;;;;;;314.58;288.73;;;;;;;18.50;33.57;92007.38;5026049;28;20466;-67
2022/04/07 10:10:52;;;;;;;308.27;282.70;;;;;;;18.49;33.46;92009.34;5026699;28;20050;-67
2022/04/07 10:13:18;;;;;;;302.42;276.98;;;;;;;18.48;33.28;91997.06;5023326;28;20065;-67
2022/04/07 10:15:45;;;;;;;307.90;282.48;;;;;;;18.47;33.47;91995.59;5025851;28;20127;-67
2022/04/07 10:18:50;;;;;;;306.27;280.23;;;;;;;18.47;33.38;92000.28;5022997;28;20109;-67
2022/04/07 10:21:36;;;;;;;301.85;275.73;;;;;;;18.44;33.58;91988.47;5001606;28;20045;-67
2022/04/07 10:24:23;;;;;;;312.83;286.85;;;;;;;18.41;33.46;91978.66;5014988;28;20052;-67
2022/04/07 10:26:49;;;;;;;291.92;266.80;;;;;;;18.48;33.40;91966.56;5020980;28;20095;-67
2022/04/07 10:29:20;;;;;;;302.55;276.90;;;;;;;18.51;33.39;91954.72;5022157;28;20053;-67
2022/04/07 10:32:24;;;;;;;313.23;287.27;;;;;;;18.46;33.61;91950.09;5024714;28;20153;-67
2022/04/07 10:34:58;;;;;;;319.95;292.83;;;;;;;18.49;33.50;91959.91;4924309;28;20195;-67
2022/04/07 10:37:42;;;;;;;320.75;292.95;;;;;;;18.55;33.72;91953.19;4928720;28;20062;-67
2022/04/07 10:40:35;;;;;;;312.00;284.98;;;;;;;18.46;33.42;91958.94;4978630;28;20057;-68
2022/04/07 10:43:07;;;;;;;299.73;273.85;;;;;;;18.48;33.37;91955.72;5015844;28;20057;-67
2022/04/07 10:45:33;;;;;;;303.00;277.40;;;;;;;18.46;33.64;91948.13;5017831;28;20053;-65
2022/04/07 10:48:17;;;;;;;309.55;284.10;;;;;;;18.48;33.69;91951.03;5027570;28;20128;-72
2022/04/07 10:50:49;;;;;;;291.05;266.25;;;;;;;18.43;33.23;91957.25;5020225;28;20779;-71
2022/04/07 10:53:26;;;;;;;307.92;282.27;;;;;;;18.42;33.60;91956.50;5018672;28;20488;-70
2022/04/07 10:55:56;;;;;;;310.95;283.48;;;;;;;18.41;33.58;91933.38;5026885;28;20037;-75
2022/04/07 10:58:46;;;;;;;310.37;283.67;;;;;;;18.42;33.76;91942.25;5012351;28;20061;-74
2022/04/07 11:01:14;;;;;;;305.90;279.65;;;;;;;18.43;33.73;91922.06;5007335;28;20370;-75
2022/04/07 11:03:45;;;;;;;310.50;283.80;;;;;;;18.45;33.45;91930.41;5026573;28;20057;-76